Terminal Aerodrome Forecast
Issued by NWS

Home | Current Version | Previous Version | Text Only | Print | Product List | Glossary On
Versions: 1 2 3 4 5 6 7 8 9 10 11 12 13 14 15 16 17 18 19 20 21 22 23 24 25 26 27 28 29 30 31 32 33 34 35 36 37 38 39 40
000
FTAK31 PANC 212326
TAFASN
TAF
PASN 212326Z 2200/2224 01007KT P6SM SCT015 BKN025
      TEMPO 2200/2203 3SM -SN BR BKN015 BKN025
     FM220300 28010KT 6SM BR FEW007 SCT015 BKN025
     FM220600 12012KT 3SM BR BKN015
     FM221100 15020G30KT 2SM -SN BR BKN007 OVC015=

USA.gov is the U.S. government's official web portal to all federal, state and local government web resources and services.